»·PEaware :: N9298L KSLE-KSLE

N9298L :: KSLE-KSLE

FLIGHT INFORMATION

Flight Status: Arrived
Operator: Privately registered:
United States
More flights under this callsign
Pilot: Brendan O. (14500)
Aircraft: PIPER PA-32 SARATOGA
(PA32)
More flights by this aircraft type
Origin: KSLE McNary
United States
Destination: KSLE McNary
United States
More flights between these airports :: More routes between these airports
Route: +CVO
File this flight plan on PilotEdge
Remarks: PLEASE ASSIGN A HOLD AT CVO
Altitude:
(Current/Filed)
3,000ft
Speed:
(Current/Filed)
145kts
Departed: 30-Jan-18 09:30 AM
Arrived: 30-Jan-18 10:12 AM
Distance/Time
Traveled:
0nm/0:42
Distance/Time
To Go:
Arrived

Flight Plot

Page will automatically refresh every two minutes.

Flight plan parsing failed; only flown route is shown


Map Options




Map Legend


Flown Route
Filed Route
Departure Airport
Arrival Airport
Navaid (VOR, NDB)
Fix

Horizontal Profiles

Position Reports

Time Latitude Longitude Heading Altitude Ground
Speed
30-Jan-18 09:03 44.916687 -123.007106 150 195ft 0kts
30-Jan-18 09:04 44.916687 -123.007106 150 195ft 0kts
30-Jan-18 09:05 44.916687 -123.007106 150 195ft 0kts
30-Jan-18 09:06 44.916687 -123.007106 150 195ft 0kts
30-Jan-18 09:07 44.916687 -123.007106 150 195ft 0kts
30-Jan-18 09:08 44.916687 -123.007106 150 195ft 0kts
30-Jan-18 09:09 44.916687 -123.007106 150 195ft 0kts
30-Jan-18 09:10 44.916687 -123.007106 150 195ft 0kts
30-Jan-18 09:11 44.916687 -123.007106 150 195ft 0kts
30-Jan-18 09:12 44.916687 -123.007106 150 195ft 0kts
30-Jan-18 09:13 44.916687 -123.007106 150 195ft 0kts
30-Jan-18 09:14 44.916687 -123.007106 150 195ft 0kts
30-Jan-18 09:15 44.916687 -123.007106 150 195ft 0kts
30-Jan-18 09:16 44.916687 -123.007106 150 195ft 0kts
30-Jan-18 09:17 44.916687 -123.007106 150 195ft 0kts
30-Jan-18 09:18 44.916687 -123.007106 150 195ft 0kts
30-Jan-18 09:19 44.916687 -123.007106 150 195ft 0kts
30-Jan-18 09:20 44.916687 -123.007106 150 195ft 0kts
30-Jan-18 09:21 44.916687 -123.007106 150 195ft 0kts
30-Jan-18 09:22 44.916687 -123.007106 150 195ft 0kts
30-Jan-18 09:23 44.916687 -123.007106 150 195ft 0kts
30-Jan-18 09:24 44.916687 -123.007106 150 195ft 0kts
30-Jan-18 09:25 44.916687 -123.007106 150 195ft 0kts
30-Jan-18 09:26 44.916687 -123.007106 150 195ft 0kts
30-Jan-18 09:27 44.916687 -123.007106 150 195ft 0kts
30-Jan-18 09:28 44.916687 -123.007106 150 195ft 0kts
30-Jan-18 09:29 44.916687 -123.007106 150 195ft 0kts
30-Jan-18 09:30 44.916687 -123.007106 150 195ft 0kts
30-Jan-18 09:31 44.916687 -123.007106 150 195ft 0kts
30-Jan-18 09:32 44.916687 -123.007106 150 195ft 0kts
30-Jan-18 09:33 44.916687 -123.007106 150 195ft 0kts
30-Jan-18 09:34 44.916687 -123.007106 150 195ft 0kts
30-Jan-18 09:35 44.916687 -123.007106 150 195ft 0kts
30-Jan-18 09:36 44.913301 -123.004391 151 199ft 64kts
30-Jan-18 09:37 44.892978 -122.988093 152 883ft 85kts
30-Jan-18 09:38 44.871612 -122.970494 154 1665ft 89kts
30-Jan-18 09:39 44.849167 -122.953573 147 2427ft 93kts
30-Jan-18 09:40 44.826734 -122.961540 217 2944ft 102kts
30-Jan-18 09:41 44.799723 -122.991581 216 2952ft 136kts
30-Jan-18 09:42 44.768688 -123.021520 213 3008ft 135kts
30-Jan-18 09:43 44.736835 -123.051074 214 2972ft 137kts
30-Jan-18 09:44 44.707304 -123.083213 219 3185ft 123kts
30-Jan-18 09:45 44.681820 -123.110009 215 3793ft 111kts
30-Jan-18 09:46 44.655499 -123.136688 217 4006ft 126kts
30-Jan-18 09:47 44.625659 -123.164713 215 4003ft 133kts
30-Jan-18 09:48 44.593013 -123.198840 218 4025ft 165kts
30-Jan-18 09:49 44.564506 -123.227414 216 4045ft 171kts
30-Jan-18 09:50 44.526918 -123.264439 215 4024ft 162kts
30-Jan-18 09:51 44.490485 -123.301185 216 4055ft 159kts
30-Jan-18 09:52 44.454481 -123.337673 219 4077ft 160kts
30-Jan-18 09:53 44.417359 -123.371456 189 4031ft 165kts
30-Jan-18 09:54 44.394076 -123.326410 59 3944ft 185kts
30-Jan-18 09:55 44.440038 -123.317297 2 3926ft 181kts
30-Jan-18 09:56 44.488625 -123.298922 16 3904ft 177kts
30-Jan-18 09:57 44.533475 -123.270664 26 3989ft 178kts
30-Jan-18 09:58 44.576343 -123.239423 24 4081ft 179kts
30-Jan-18 09:59 44.621468 -123.207235 25 3991ft 182kts
30-Jan-18 10:00 44.666536 -123.175130 24 3934ft 182kts
30-Jan-18 10:01 44.712317 -123.146564 19 3984ft 180kts
30-Jan-18 10:02 44.759707 -123.125949 4 3963ft 181kts
30-Jan-18 10:03 44.809187 -123.117020 4 3990ft 179kts
30-Jan-18 10:04 44.858769 -123.109632 4 4000ft 180kts
30-Jan-18 10:05 44.907687 -123.091588 12 3946ft 181kts
30-Jan-18 10:06 44.956967 -123.081450 4 3988ft 179kts
30-Jan-18 10:07 45.006437 -123.081519 333 3637ft 179kts
30-Jan-18 10:08 45.046009 -123.117798 322 3234ft 165kts
30-Jan-18 10:09 45.063401 -123.172363 277 3005ft 154kts
30-Jan-18 10:10 45.086638 -123.209794 13 3045ft 143kts
30-Jan-18 10:11 45.090070 -123.165934 135 3010ft 138kts
30-Jan-18 10:12 45.063071 -123.125812 149 2454ft 142kts
30-Jan-18 10:13 45.030030 -123.099204 152 2113ft 121kts
30-Jan-18 10:14 45.003005 -123.076121 148 2135ft 117kts
30-Jan-18 10:15 44.974446 -123.052328 158 1283ft 116kts
30-Jan-18 10:16 44.947049 -123.030585 156 789ft 106kts
30-Jan-18 10:17 44.920684 -123.010444 151 342ft 90kts
30-Jan-18 10:18 44.907500 -122.999711 152 207ft 6kts

Navigation Log

Ident Type
Flight plan parsing failed, navigation log unavailable